Aviation Digital Data Service (ADDS)

Output produced by TAFs form (2001 UTC 30 January 2015)
found at http://aviationweather.gov/adds/tafs/
 
KCNY 301739Z 3018/3118 16005KT P6SM -RA SCT016 BKN025 OVC030 
     FM310300 35004KT 3SM -RA BR OVC020 
     FM310700 VRB02KT 1 1/2SM -RA OVC015